createdAt,value
2023-03-11T00:01:36.539Z,73.45
2023-03-11T00:04:43.703Z,68.90
2023-03-11T00:07:52.227Z,64.39
2023-03-11T00:11:03.069Z,59.00
2023-03-11T00:14:08.846Z,56.16
2023-03-11T00:17:18.353Z,50.38
2023-03-11T00:20:28.355Z,50.70
2023-03-11T00:23:37.596Z,51.12
2023-03-11T00:26:43.525Z,51.25
2023-03-11T00:29:50.083Z,48.20
2023-03-11T00:32:59.733Z,43.47
2023-03-11T00:36:07.114Z,42.47
2023-03-11T00:39:15.589Z,41.14
2023-03-11T00:42:23.911Z,42.37
2023-03-11T00:45:31.831Z,41.78
2023-03-11T00:48:38.465Z,41.18
2023-03-11T00:51:44.890Z,33.03
2023-03-11T00:54:54.220Z,24.80
2023-03-11T00:58:03.830Z,20.73
2023-03-11T01:01:30.853Z,19.07
2023-03-11T01:04:36.865Z,20.03
2023-03-11T01:07:43.651Z,16.29
2023-03-11T01:10:52.235Z,14.86
2023-03-11T01:13:58.769Z,12.91
2023-03-11T01:17:04.570Z,13.81
2023-03-11T01:20:12.856Z,12.78
2023-03-11T01:23:20.996Z,12.56
2023-03-11T01:26:30.225Z,13.14
2023-03-11T01:29:36.167Z,12.52
2023-03-11T01:32:43.448Z,12.55
2023-03-11T01:35:50.325Z,13.06
2023-03-11T01:38:58.027Z,12.92
2023-03-11T01:42:07.082Z,13.47
2023-03-11T01:45:42.602Z,12.12
2023-03-11T01:48:53.992Z,14.50
2023-03-11T01:52:08.068Z,19.76
2023-03-11T01:55:23.146Z,24.15
2023-03-11T01:58:41.026Z,29.61
2023-03-11T02:01:58.155Z,36.03
2023-03-11T02:05:07.699Z,35.69
2023-03-11T02:08:13.817Z,31.66
2023-03-11T02:11:26.586Z,26.66
2023-03-11T02:14:38.253Z,22.68
2023-03-11T02:17:47.403Z,19.33
2023-03-11T02:21:10.048Z,19.69
2023-03-11T02:24:31.125Z,20.17
2023-03-11T02:27:48.222Z,21.67
2023-03-11T02:30:56.685Z,21.21
2023-03-11T02:34:12.988Z,19.81
2023-03-11T02:37:21.870Z,18.97
2023-03-11T02:40:55.732Z,18.14
2023-03-11T02:44:09.852Z,18.93
2023-03-11T02:47:17.454Z,18.66
2023-03-11T02:50:28.264Z,18.02
2023-03-11T02:53:44.557Z,17.27
2023-03-11T02:56:51.110Z,16.95
2023-03-11T03:00:02.400Z,15.66
2023-03-11T03:03:10.736Z,15.86
2023-03-11T03:06:18.341Z,15.92
2023-03-11T03:09:25.059Z,17.93
2023-03-11T03:12:31.080Z,15.00
2023-03-11T03:15:40.326Z,16.29
2023-03-11T03:18:46.410Z,17.14
2023-03-11T03:21:53.979Z,16.25
2023-03-11T03:25:01.472Z,14.14
2023-03-11T03:28:10.039Z,15.41
2023-03-11T03:31:21.406Z,19.42
2023-03-11T03:34:28.627Z,21.00
2023-03-11T03:37:38.440Z,14.51
2023-03-11T03:40:50.518Z,14.19
2023-03-11T03:43:59.345Z,15.63
2023-03-11T03:47:09.505Z,14.53
2023-03-11T03:50:17.739Z,16.38
2023-03-11T03:53:27.274Z,19.63
2023-03-11T03:56:33.905Z,19.27
2023-03-11T03:59:41.687Z,15.64
2023-03-11T04:02:50.058Z,16.40
2023-03-11T04:06:13.466Z,17.38
2023-03-11T04:09:19.535Z,19.07
2023-03-11T04:12:26.241Z,21.64
2023-03-11T04:15:32.364Z,25.60
2023-03-11T04:18:41.558Z,26.11
2023-03-11T04:21:47.564Z,23.67
2023-03-11T04:24:54.701Z,21.72
2023-03-11T04:28:03.087Z,20.12
2023-03-11T04:31:12.696Z,19.91
2023-03-11T04:34:21.337Z,19.23
2023-03-11T04:37:31.528Z,20.04
2023-03-11T04:40:40.135Z,20.13
2023-03-11T04:43:47.148Z,20.82
2023-03-11T04:46:53.359Z,19.51
2023-03-11T04:50:02.632Z,15.01
2023-03-11T04:53:09.201Z,12.33
2023-03-11T04:56:17.101Z,11.67
2023-03-11T04:59:23.172Z,12.90
2023-03-11T05:02:31.345Z,15.62
2023-03-11T05:05:42.085Z,16.75
2023-03-11T05:08:50.097Z,17.87
2023-03-11T05:11:56.273Z,17.33
2023-03-11T05:15:03.637Z,17.92
2023-03-11T05:18:09.937Z,16.73
2023-03-11T05:21:20.858Z,18.64
2023-03-11T05:24:27.985Z,20.67
2023-03-11T05:27:36.137Z,22.88
2023-03-11T05:30:43.092Z,24.83
2023-03-11T05:33:50.213Z,17.91
2023-03-11T05:36:59.420Z,14.50
2023-03-11T05:40:10.470Z,21.92
2023-03-11T05:43:17.279Z,19.36
2023-03-11T05:46:32.456Z,32.24
2023-03-11T05:49:39.943Z,36.01
2023-03-11T05:52:49.322Z,51.51
2023-03-11T05:56:02.669Z,82.40
2023-03-11T05:59:09.500Z,31.20
2023-03-11T06:02:16.045Z,40.67
2023-03-11T06:05:23.140Z,24.02
2023-03-11T06:08:34.614Z,18.09
2023-03-11T06:11:42.455Z,15.52
2023-03-11T06:14:48.919Z,17.07
2023-03-11T06:17:55.866Z,17.08
2023-03-11T06:21:04.144Z,24.83
2023-03-11T06:24:15.023Z,34.57
2023-03-11T06:27:25.821Z,46.70
2023-03-11T06:30:33.771Z,37.36
2023-03-11T06:33:46.430Z,34.57
2023-03-11T06:36:57.371Z,20.39
2023-03-11T06:40:07.529Z,19.48
2023-03-11T06:43:14.725Z,18.89
2023-03-11T06:46:25.599Z,89.22
2023-03-11T06:49:34.552Z,145.99
2023-03-11T06:52:40.509Z,117.92
2023-03-11T06:56:02.533Z,48.37
2023-03-11T06:59:10.492Z,47.29
2023-03-11T07:02:17.401Z,50.65
2023-03-11T07:05:23.291Z,40.52
2023-03-11T07:08:34.796Z,39.37
2023-03-11T07:11:43.371Z,42.96
2023-03-11T07:14:58.866Z,59.69
2023-03-11T07:18:05.667Z,71.24
2023-03-11T07:21:14.307Z,79.21
2023-03-11T07:24:20.304Z,107.88
2023-03-11T07:27:31.730Z,127.89
2023-03-11T07:30:37.554Z,112.78
2023-03-11T07:33:44.356Z,96.80
2023-03-11T07:36:50.157Z,71.61
2023-03-11T07:39:57.119Z,72.64
2023-03-11T07:43:05.637Z,62.84
2023-03-11T07:46:16.685Z,53.68
2023-03-11T07:49:22.658Z,54.53
2023-03-11T07:52:32.454Z,50.87
2023-03-11T07:55:40.317Z,50.92
2023-03-11T07:58:50.026Z,51.64
2023-03-11T08:01:57.134Z,71.53
2023-03-11T08:05:03.861Z,71.37
2023-03-11T08:08:09.773Z,63.76
2023-03-11T08:11:18.007Z,66.68
2023-03-11T08:14:26.398Z,52.97
2023-03-11T08:17:33.115Z,51.93
2023-03-11T08:20:41.105Z,72.03
2023-03-11T08:23:49.201Z,125.62
2023-03-11T08:26:55.646Z,79.82
2023-03-11T08:30:05.216Z,84.28
2023-03-11T08:33:11.201Z,89.39
2023-03-11T08:36:17.974Z,67.31
2023-03-11T08:39:24.112Z,58.57
2023-03-11T08:42:30.703Z,72.15
2023-03-11T08:45:39.114Z,70.42
2023-03-11T08:48:47.261Z,86.07
2023-03-11T08:51:53.115Z,110.92
2023-03-11T08:55:00.412Z,138.07
2023-03-11T08:58:07.676Z,101.13
2023-03-11T09:01:17.320Z,118.11
2023-03-11T09:04:23.120Z,98.62
2023-03-11T09:07:29.828Z,106.90
2023-03-11T09:10:36.076Z,113.84
2023-03-11T09:13:43.856Z,86.76
2023-03-11T09:16:52.217Z,134.31
2023-03-11T09:19:58.823Z,109.56
2023-03-11T09:23:04.812Z,95.18
2023-03-11T09:26:11.516Z,119.21
2023-03-11T09:29:18.209Z,98.44
2023-03-11T09:32:28.317Z,95.39
2023-03-11T09:35:34.446Z,523.25
2023-03-11T09:38:41.216Z,300.14
2023-03-11T09:41:59.059Z,275.96
2023-03-11T09:45:15.520Z,286.78
2023-03-11T09:48:40.231Z,175.57
2023-03-11T09:52:04.846Z,156.51
2023-03-11T09:55:34.711Z,179.49
2023-03-11T09:58:47.733Z,135.03
2023-03-11T10:01:55.821Z,155.08
2023-03-11T10:05:16.909Z,146.49
2023-03-11T10:08:36.258Z,168.25
2023-03-11T10:12:10.009Z,125.09
2023-03-11T10:15:39.707Z,250.69
2023-03-11T10:19:03.575Z,288.83
2023-03-11T10:22:29.915Z,270.64
2023-03-11T10:25:56.851Z,246.09
2023-03-11T10:29:13.236Z,376.12
2023-03-11T10:32:32.033Z,327.64
2023-03-11T10:35:47.550Z,265.54
2023-03-11T10:38:59.149Z,223.67
2023-03-11T10:42:08.874Z,329.47
2023-03-11T10:45:17.607Z,231.05
2023-03-11T10:48:25.748Z,128.74
2023-03-11T10:51:38.587Z,82.99
2023-03-11T10:54:51.169Z,73.70
2023-03-11T10:58:10.426Z,66.82
2023-03-11T11:01:21.856Z,61.35
2023-03-11T11:04:45.107Z,73.61
2023-03-11T11:07:53.269Z,71.84
2023-03-11T11:11:05.898Z,89.08
2023-03-11T11:14:12.370Z,83.12
2023-03-11T11:17:30.009Z,69.60
2023-03-11T11:20:37.845Z,62.39
2023-03-11T11:23:53.032Z,87.78
2023-03-11T11:27:21.622Z,63.91
2023-03-11T11:30:32.420Z,86.66
2023-03-11T11:33:53.226Z,92.46
2023-03-11T11:37:02.792Z,133.21
2023-03-11T11:40:30.783Z,187.53
2023-03-11T11:43:53.289Z,263.69
2023-03-11T11:47:10.590Z,150.70
2023-03-11T11:50:30.254Z,108.88
2023-03-11T11:53:47.228Z,116.36
2023-03-11T11:56:53.909Z,121.61
2023-03-11T12:00:09.614Z,98.77
2023-03-11T12:03:51.503Z,83.15
2023-03-11T12:07:22.281Z,76.99
2023-03-11T12:10:44.497Z,72.74
2023-03-11T12:14:08.453Z,139.28
2023-03-11T12:17:23.744Z,119.18
2023-03-11T12:20:41.421Z,313.42
2023-03-11T12:24:12.260Z,944.18
2023-03-11T12:27:28.288Z,1223.67
2023-03-11T12:30:44.677Z,692.86
2023-03-11T12:34:03.265Z,611.93
2023-03-11T12:37:18.448Z,624.76
2023-03-11T12:41:01.137Z,413.52
2023-03-11T12:44:26.598Z,780.20
2023-03-11T12:47:35.246Z,475.24
2023-03-11T12:50:47.328Z,270.34
2023-03-11T12:53:53.263Z,217.84
2023-03-11T12:57:03.265Z,237.50
2023-03-11T13:00:30.706Z,220.65
2023-03-11T13:04:24.372Z,145.19
2023-03-11T13:07:51.238Z,166.42
2023-03-11T13:11:00.748Z,149.22
2023-03-11T13:14:34.176Z,117.55
2023-03-11T13:17:41.977Z,88.97
2023-03-11T13:20:59.025Z,88.17
2023-03-11T13:24:52.987Z,88.81
2023-03-11T13:28:25.584Z,101.02
2023-03-11T13:31:59.376Z,151.34
2023-03-11T13:35:32.393Z,133.22
2023-03-11T13:39:30.573Z,111.48
2023-03-11T13:43:02.798Z,175.89
2023-03-11T13:46:38.555Z,983.83
2023-03-11T13:50:08.952Z,816.67
2023-03-11T13:53:42.530Z,474.42
2023-03-11T13:56:57.620Z,667.22
2023-03-11T14:00:24.252Z,727.42
2023-03-11T14:03:36.939Z,385.57
2023-03-11T14:06:42.787Z,276.90
2023-03-11T14:09:49.531Z,176.66
2023-03-11T14:13:07.339Z,167.77
2023-03-11T14:16:24.240Z,141.78
2023-03-11T14:19:30.697Z,93.46
2023-03-11T14:22:56.594Z,88.04
2023-03-11T14:26:23.131Z,98.95
2023-03-11T14:29:46.036Z,80.71
2023-03-11T14:33:25.449Z,95.62
2023-03-11T14:36:32.203Z,471.10
2023-03-11T14:39:40.504Z,249.19
2023-03-11T14:42:48.821Z,194.32
2023-03-11T14:45:58.122Z,254.29
2023-03-11T14:49:17.178Z,261.03
2023-03-11T14:52:37.474Z,253.01
2023-03-11T14:55:53.816Z,151.01
2023-03-11T14:59:12.676Z,418.13
2023-03-11T15:02:44.157Z,177.84
2023-03-11T15:05:57.894Z,94.28
2023-03-11T15:09:13.502Z,93.45
2023-03-11T15:12:37.477Z,121.59
2023-03-11T15:15:46.285Z,83.29
2023-03-11T15:18:54.526Z,87.09
2023-03-11T15:22:27.229Z,78.62
2023-03-11T15:25:37.533Z,83.65
2023-03-11T15:28:45.227Z,68.75
2023-03-11T15:31:52.039Z,64.20
2023-03-11T15:35:16.434Z,59.98
2023-03-11T15:38:28.880Z,62.20
2023-03-11T15:41:35.520Z,125.57
2023-03-11T15:44:48.411Z,69.32
2023-03-11T15:47:56.913Z,94.96
2023-03-11T15:51:04.019Z,108.60
2023-03-11T15:54:13.367Z,84.48
2023-03-11T15:57:27.993Z,71.69
2023-03-11T16:00:35.805Z,77.04
2023-03-11T16:03:41.769Z,82.95
2023-03-11T16:07:02.932Z,67.87
2023-03-11T16:10:19.098Z,82.38
2023-03-11T16:13:25.728Z,78.89
2023-03-11T16:16:31.681Z,83.62
2023-03-11T16:19:38.447Z,92.59
2023-03-11T16:22:44.719Z,307.71
2023-03-11T16:25:59.562Z,131.94
2023-03-11T16:29:18.523Z,105.50
2023-03-11T16:32:28.148Z,85.67
2023-03-11T16:35:33.999Z,121.62
2023-03-11T16:38:50.680Z,99.61
2023-03-11T16:41:59.253Z,79.83
2023-03-11T16:45:06.041Z,104.82
2023-03-11T16:48:13.523Z,103.38
2023-03-11T16:51:20.174Z,81.26
2023-03-11T16:54:27.878Z,68.51
2023-03-11T16:57:38.013Z,73.67
2023-03-11T17:00:44.269Z,96.81
2023-03-11T17:03:52.123Z,72.48
2023-03-11T17:06:58.322Z,67.46
2023-03-11T17:10:06.670Z,70.85
2023-03-11T17:13:19.206Z,128.47
2023-03-11T17:16:26.071Z,98.31
2023-03-11T17:19:33.958Z,92.26
2023-03-11T17:22:40.850Z,94.02
2023-03-11T17:25:46.723Z,103.03
2023-03-11T17:28:56.161Z,99.66
2023-03-11T17:32:01.969Z,86.71
2023-03-11T17:35:10.188Z,73.66
2023-03-11T17:38:16.736Z,74.40
2023-03-11T17:41:25.024Z,74.34
2023-03-11T17:44:50.223Z,77.00
2023-03-11T17:47:58.150Z,75.61
2023-03-11T17:51:10.258Z,81.79
2023-03-11T17:54:16.967Z,110.02
2023-03-11T17:57:23.072Z,97.41
2023-03-11T18:00:32.329Z,84.82
2023-03-11T18:03:38.147Z,73.36
2023-03-11T18:06:44.825Z,78.03
2023-03-11T18:09:55.291Z,78.61
2023-03-11T18:13:02.093Z,84.33
2023-03-11T18:16:15.534Z,71.17
2023-03-11T18:19:22.643Z,64.66
2023-03-11T18:22:28.476Z,59.21
2023-03-11T18:25:35.629Z,56.22
2023-03-11T18:28:42.994Z,63.16
2023-03-11T18:31:52.332Z,74.14
2023-03-11T18:34:58.089Z,124.55
2023-03-11T18:38:04.858Z,99.65
2023-03-11T18:41:10.738Z,114.94
2023-03-11T18:44:17.420Z,107.34
2023-03-11T18:47:25.833Z,192.73
2023-03-11T18:50:32.562Z,117.67
2023-03-11T18:53:40.690Z,81.56
2023-03-11T18:56:49.964Z,131.10
2023-03-11T18:59:55.758Z,145.69
2023-03-11T19:03:05.120Z,125.64
2023-03-11T19:06:12.342Z,300.58
2023-03-11T19:09:19.465Z,1409.37
2023-03-11T19:12:29.389Z,3076.14
2023-03-11T19:15:36.180Z,2121.46
2023-03-11T19:18:47.768Z,2692.34
2023-03-11T19:21:55.567Z,2947.98
2023-03-11T19:25:01.404Z,9551.63
2023-03-11T19:28:08.402Z,12964.93
2023-03-11T19:31:14.320Z,2250.94
2023-03-11T19:34:24.082Z,1075.97
2023-03-11T19:37:29.857Z,890.80
2023-03-11T19:40:36.691Z,548.41
2023-03-11T19:43:43.063Z,303.50
2023-03-11T19:46:49.924Z,428.60
2023-03-11T19:49:58.325Z,651.05
2023-03-11T19:53:05.158Z,801.96
2023-03-11T19:56:13.657Z,692.70
2023-03-11T19:59:20.381Z,744.38
2023-03-11T20:02:26.449Z,560.88
2023-03-11T20:05:39.364Z,480.39
2023-03-11T20:08:45.673Z,400.22
2023-03-11T20:11:52.455Z,316.35
2023-03-11T20:14:58.245Z,248.27
2023-03-11T20:18:06.536Z,171.62
2023-03-11T20:21:17.980Z,133.67
2023-03-11T20:24:24.975Z,100.12
2023-03-11T20:27:30.731Z,92.20
2023-03-11T20:30:38.071Z,119.46
2023-03-11T20:33:44.268Z,110.37
2023-03-11T20:36:53.798Z,176.92
2023-03-11T20:39:59.669Z,220.10
2023-03-11T20:43:06.439Z,223.21
2023-03-11T20:46:13.995Z,242.48
2023-03-11T20:49:20.647Z,241.00
2023-03-11T20:52:35.830Z,289.62
2023-03-11T20:55:44.235Z,260.33
2023-03-11T20:58:55.965Z,261.53
2023-03-11T21:02:03.526Z,196.80
2023-03-11T21:05:12.242Z,193.99
2023-03-11T21:08:21.772Z,194.60
2023-03-11T21:11:28.995Z,199.75
2023-03-11T21:14:35.647Z,206.37
2023-03-11T21:17:41.866Z,188.08
2023-03-11T21:20:48.951Z,182.92
2023-03-11T21:23:57.813Z,213.72
2023-03-11T21:27:05.029Z,203.65
2023-03-11T21:30:14.013Z,199.27
2023-03-11T21:33:21.160Z,182.52
2023-03-11T21:36:27.891Z,142.28
2023-03-11T21:39:37.207Z,165.56
2023-03-11T21:42:43.201Z,139.80
2023-03-11T21:45:55.483Z,164.03
2023-03-11T21:49:05.538Z,127.04
2023-03-11T21:52:13.145Z,115.54
2023-03-11T21:55:22.557Z,123.55
2023-03-11T21:58:30.526Z,121.59
2023-03-11T22:01:37.887Z,119.27
2023-03-11T22:04:45.013Z,110.77
2023-03-11T22:07:51.556Z,108.47
2023-03-11T22:11:01.200Z,108.00
2023-03-11T22:14:09.643Z,111.23
2023-03-11T22:17:16.657Z,118.28
2023-03-11T22:20:23.322Z,102.59
2023-03-11T22:23:30.836Z,114.04
2023-03-11T22:26:39.756Z,101.63
2023-03-11T22:29:46.676Z,95.67
2023-03-11T22:32:53.798Z,104.58
2023-03-11T22:36:02.314Z,105.60
2023-03-11T22:39:09.140Z,93.69
2023-03-11T22:42:18.824Z,94.70
2023-03-11T22:45:27.848Z,98.59
2023-03-11T22:48:35.117Z,105.22
2023-03-11T22:51:40.867Z,99.20
2023-03-11T22:54:48.096Z,102.72
2023-03-11T22:57:57.027Z,96.10
2023-03-11T23:01:04.262Z,104.01
2023-03-11T23:04:10.729Z,113.82
2023-03-11T23:07:18.478Z,112.83
2023-03-11T23:10:24.766Z,106.20
2023-03-11T23:13:35.999Z,107.53
2023-03-11T23:16:44.062Z,101.25
2023-03-11T23:19:50.761Z,109.07
2023-03-11T23:22:56.687Z,119.59
2023-03-11T23:26:03.731Z,113.79
2023-03-11T23:29:12.328Z,127.95
2023-03-11T23:32:18.933Z,118.27
2023-03-11T23:35:24.822Z,115.84
2023-03-11T23:38:31.562Z,114.47
2023-03-11T23:41:38.124Z,111.54
2023-03-11T23:44:47.345Z,115.29
2023-03-11T23:47:53.316Z,111.68
2023-03-11T23:51:00.756Z,99.62
2023-03-11T23:54:06.720Z,94.91
2023-03-11T23:57:13.439Z,102.03
